createdAt,value
2018-04-12T00:00:02.756Z,71.23
2018-04-12T00:02:34.457Z,71.42
2018-04-12T00:05:05.609Z,71.61
2018-04-12T00:07:42.193Z,71.98
2018-04-12T00:10:14.416Z,71.33
2018-04-12T00:12:45.836Z,71.28
2018-04-12T00:15:16.453Z,71.66
2018-04-12T00:17:50.051Z,71.97
2018-04-12T00:20:21.408Z,72.16
2018-04-12T00:22:53.172Z,72.87
2018-04-12T00:25:26.748Z,72.73
2018-04-12T00:27:59.144Z,73.19
2018-04-12T00:30:30.432Z,73.31
2018-04-12T00:33:01.663Z,74.17
2018-04-12T00:35:33.860Z,74.09
2018-04-12T00:38:04.855Z,74.09
2018-04-12T00:40:36.065Z,74.21
2018-04-12T00:43:07.407Z,73.88
2018-04-12T00:45:56.825Z,74.48
2018-04-12T00:48:29.764Z,74.16
2018-04-12T00:51:04.004Z,74.76
2018-04-12T00:53:45.026Z,75.30
2018-04-12T00:56:21.464Z,75.27
2018-04-12T00:58:55.309Z,75.21
2018-04-12T01:01:26.898Z,75.05
2018-04-12T01:03:58.462Z,74.75
2018-04-12T01:06:31.398Z,74.87
2018-04-12T01:09:03.602Z,74.76
2018-04-12T01:11:39.974Z,75.23
2018-04-12T01:14:11.619Z,75.47
2018-04-12T01:16:42.387Z,75.55
2018-04-12T01:25:21.927Z,75.56
2018-04-12T01:27:51.389Z,75.70
2018-04-12T01:30:25.588Z,75.84
2018-04-12T01:33:08.170Z,75.63
2018-04-12T01:35:43.366Z,76.00
2018-04-12T01:38:15.314Z,76.53
2018-04-12T01:40:45.553Z,76.97
2018-04-12T01:43:14.168Z,76.45
2018-04-12T01:45:42.686Z,76.21
2018-04-12T01:48:11.330Z,76.18
2018-04-12T01:50:39.865Z,76.38
2018-04-12T01:53:08.706Z,76.05
2018-04-12T01:55:37.600Z,76.11
2018-04-12T01:58:06.208Z,76.35
2018-04-12T02:00:34.755Z,76.04
2018-04-12T02:03:03.370Z,76.09
2018-04-12T02:05:31.879Z,76.12
2018-04-12T02:08:00.502Z,76.04
2018-04-12T02:10:29.086Z,76.55
2018-04-12T02:12:57.671Z,77.10
2018-04-12T02:15:26.338Z,76.71
2018-04-12T02:17:59.635Z,76.73
2018-04-12T02:20:28.206Z,76.78
2018-04-12T02:22:56.740Z,76.25
2018-04-12T02:25:25.271Z,76.27
2018-04-12T02:27:54.207Z,76.14
2018-04-12T02:30:23.384Z,76.43
2018-04-12T02:32:53.362Z,75.89
2018-04-12T02:35:24.246Z,76.29
2018-04-12T02:37:53.369Z,76.46
2018-04-12T02:40:22.869Z,76.89
2018-04-12T02:42:54.063Z,77.18
2018-04-12T02:45:23.160Z,76.91
2018-04-12T02:47:52.856Z,77.18
2018-04-12T02:50:23.120Z,77.77
2018-04-12T02:52:51.764Z,77.69
2018-04-12T02:55:21.386Z,77.17
2018-04-12T02:57:49.967Z,77.66
2018-04-12T03:00:18.656Z,77.54
2018-04-12T03:02:47.375Z,77.20
2018-04-12T03:05:16.069Z,77.67
2018-04-12T03:07:45.018Z,77.23
2018-04-12T03:10:13.628Z,77.22
2018-04-12T03:12:45.353Z,77.83
2018-04-12T03:15:13.839Z,77.69
2018-04-12T03:17:45.084Z,77.31
2018-04-12T03:20:13.601Z,77.21
2018-04-12T03:22:42.422Z,77.47
2018-04-12T03:25:10.904Z,77.80
2018-04-12T03:27:41.752Z,77.80
2018-04-12T03:30:11.992Z,78.00
2018-04-12T03:32:43.203Z,77.87
2018-04-12T03:35:11.780Z,77.87
2018-04-12T03:37:40.300Z,78.09
2018-04-12T03:40:09.181Z,78.34
2018-04-12T03:42:37.884Z,78.31
2018-04-12T03:45:07.081Z,78.31
2018-04-12T03:47:35.743Z,78.41
2018-04-12T03:50:04.934Z,78.26
2018-04-12T03:52:33.537Z,78.76
2018-04-12T03:55:02.132Z,79.17
2018-04-12T03:57:30.782Z,79.36
2018-04-12T03:59:59.371Z,79.10
2018-04-12T04:02:27.981Z,78.94
2018-04-12T04:04:56.742Z,78.54
2018-04-12T04:07:25.880Z,78.37
2018-04-12T04:09:54.450Z,78.43
2018-04-12T04:12:23.005Z,78.69
2018-04-12T04:15:00.563Z,78.32
2018-04-12T04:21:48.236Z,78.41
2018-04-12T04:24:16.926Z,77.96
2018-04-12T04:26:51.240Z,77.84
2018-04-12T04:29:19.922Z,77.96
2018-04-12T04:31:48.407Z,78.07
2018-04-12T04:34:16.884Z,78.08
2018-04-12T04:36:45.384Z,77.97
2018-04-12T04:39:13.999Z,77.74
2018-04-12T04:41:42.528Z,77.78
2018-04-12T04:44:11.028Z,77.72
2018-04-12T04:46:40.341Z,77.68
2018-04-12T04:49:09.013Z,77.67
2018-04-12T04:51:37.558Z,78.02
2018-04-12T04:54:06.183Z,77.41
2018-04-12T04:56:35.025Z,78.00
2018-04-12T04:59:03.828Z,77.58
2018-04-12T05:01:32.488Z,77.36
2018-04-12T05:04:01.056Z,77.87
2018-04-12T05:06:29.777Z,77.53
2018-04-12T05:08:58.461Z,77.08
2018-04-12T05:11:27.311Z,76.77
2018-04-12T05:13:56.290Z,77.10
2018-04-12T05:16:24.888Z,77.06
2018-04-12T05:18:54.430Z,76.84
2018-04-12T05:21:23.332Z,77.07
2018-04-12T05:23:52.047Z,76.70
2018-04-12T05:26:20.796Z,77.23
2018-04-12T05:28:49.331Z,76.78
2018-04-12T05:31:17.975Z,76.61
2018-04-12T05:33:46.849Z,76.53
2018-04-12T05:36:15.485Z,76.15
2018-04-12T05:38:44.172Z,76.04
2018-04-12T05:41:12.820Z,75.92
2018-04-12T05:43:41.407Z,75.79
2018-04-12T05:46:10.297Z,75.89
2018-04-12T05:48:39.148Z,76.24
2018-04-12T05:51:09.341Z,76.95
2018-04-12T05:53:37.907Z,75.18
2018-04-12T05:56:06.672Z,74.36
2018-04-12T05:58:37.322Z,73.60
2018-04-12T06:01:07.618Z,73.39
2018-04-12T06:03:36.229Z,73.37
2018-04-12T06:06:04.864Z,73.13
2018-04-12T06:08:33.610Z,73.06
2018-04-12T06:11:02.261Z,72.07
2018-04-12T06:13:30.897Z,72.25
2018-04-12T06:15:59.722Z,72.28
2018-04-12T06:18:29.584Z,71.93
2018-04-12T06:20:58.149Z,71.83
2018-04-12T06:23:26.754Z,71.57
2018-04-12T06:25:55.663Z,70.02
2018-04-12T06:28:24.212Z,69.68
2018-04-12T06:30:52.785Z,69.64
2018-04-12T06:33:21.344Z,70.55
2018-04-12T06:35:50.252Z,70.07
2018-04-12T06:38:18.850Z,70.12
2018-04-12T06:40:47.586Z,69.65
2018-04-12T06:43:16.330Z,67.85
2018-04-12T06:45:47.277Z,67.30
2018-04-12T06:48:15.824Z,66.82
2018-04-12T06:50:44.420Z,66.29
2018-04-12T06:53:13.476Z,65.03
2018-04-12T06:55:42.045Z,63.37
2018-04-12T06:58:10.574Z,63.49
2018-04-12T07:00:39.184Z,63.44
2018-04-12T07:03:08.200Z,63.27
2018-04-12T07:05:36.791Z,62.58
2018-04-12T07:08:05.670Z,61.06
2018-04-12T07:10:34.415Z,61.13
2018-04-12T07:13:03.108Z,60.44
2018-04-12T07:15:31.777Z,59.46
2018-04-12T07:18:00.289Z,58.51
2018-04-12T07:20:28.991Z,58.20
2018-04-12T07:22:57.866Z,57.93
2018-04-12T07:25:26.481Z,57.50
2018-04-12T07:27:55.362Z,55.82
2018-04-12T07:30:24.001Z,54.69
2018-04-12T07:32:52.945Z,54.21
2018-04-12T07:35:21.494Z,54.18
2018-04-12T07:37:51.445Z,53.34
2018-04-12T07:40:20.100Z,52.53
2018-04-12T07:42:48.886Z,53.95
2018-04-12T07:45:17.471Z,53.29
2018-04-12T07:47:46.091Z,54.03
2018-04-12T07:50:14.959Z,52.48
2018-04-12T07:52:43.557Z,52.13
2018-04-12T07:55:12.054Z,52.67
2018-04-12T07:57:40.992Z,50.55
2018-04-12T08:00:10.307Z,47.41
2018-04-12T08:02:38.901Z,45.64
2018-04-12T08:05:08.677Z,44.75
2018-04-12T08:07:37.240Z,44.44
2018-04-12T08:10:05.840Z,44.54
2018-04-12T08:12:34.681Z,46.19
2018-04-12T08:15:03.328Z,47.15
2018-04-12T08:17:31.956Z,48.39
2018-04-12T08:20:00.611Z,47.44
2018-04-12T08:22:29.304Z,46.95
2018-04-12T08:24:58.004Z,48.46
2018-04-12T08:27:26.544Z,48.31
2018-04-12T08:29:55.649Z,48.51
2018-04-12T08:32:24.413Z,49.26
2018-04-12T08:34:53.032Z,48.90
2018-04-12T08:37:21.616Z,48.23
2018-04-12T08:39:50.184Z,48.17
2018-04-12T08:42:19.184Z,48.27
2018-04-12T08:44:47.761Z,46.02
2018-04-12T08:47:16.342Z,46.85
2018-04-12T08:49:45.179Z,46.54
2018-04-12T08:52:14.859Z,47.92
2018-04-12T08:54:43.552Z,45.56
2018-04-12T08:57:12.176Z,45.89
2018-04-12T08:59:41.959Z,44.52
2018-04-12T09:02:10.774Z,45.84
2018-04-12T09:04:39.300Z,44.22
2018-04-12T09:07:07.968Z,44.76
2018-04-12T09:09:36.576Z,44.75
2018-04-12T09:12:05.272Z,44.47
2018-04-12T09:14:33.824Z,43.82
2018-04-12T09:19:44.027Z,42.58
2018-04-12T09:22:12.703Z,41.48
2018-04-12T09:24:42.325Z,41.59
2018-04-12T09:27:11.825Z,38.30
2018-04-12T09:29:40.908Z,37.15
2018-04-12T09:32:09.420Z,36.25
2018-04-12T09:34:38.040Z,34.90
2018-04-12T09:37:06.573Z,33.82
2018-04-12T09:39:35.344Z,33.97
2018-04-12T09:42:03.856Z,34.82
2018-04-12T09:44:32.383Z,34.74
2018-04-12T09:47:00.903Z,34.58
2018-04-12T09:49:29.478Z,35.63
2018-04-12T09:51:58.144Z,36.18
2018-04-12T13:53:01.824Z,27.33
2018-04-12T13:55:32.887Z,27.46
2018-04-12T13:58:09.710Z,26.89
2018-04-12T14:00:43.884Z,27.40
2018-04-12T14:03:15.875Z,27.39
2018-04-12T14:05:55.104Z,26.88
2018-04-12T14:08:28.502Z,26.56
2018-04-12T14:11:02.092Z,26.08
2018-04-12T14:13:31.024Z,25.73
2018-04-12T14:15:59.624Z,25.79
2018-04-12T14:18:28.704Z,24.51
2018-04-12T14:20:59.287Z,24.06
2018-04-12T14:23:29.701Z,24.49
2018-04-12T14:25:58.489Z,23.51
2018-04-12T14:29:09.783Z,23.39
2018-04-12T14:31:41.761Z,23.99
2018-04-12T14:34:15.655Z,21.85
2018-04-12T14:36:46.448Z,21.24
2018-04-12T14:39:15.632Z,21.62
2018-04-12T14:41:51.077Z,21.44
2018-04-12T14:44:21.980Z,21.09
2018-04-12T14:46:51.468Z,19.82
2018-04-12T14:49:23.466Z,18.93
2018-04-12T14:51:52.493Z,17.88
2018-04-12T14:54:21.777Z,17.36
2018-04-12T14:56:51.296Z,18.70
2018-04-12T14:59:26.459Z,17.12
2018-04-12T15:01:56.281Z,17.08
2018-04-12T15:04:25.637Z,16.36
2018-04-12T15:06:55.560Z,17.80
2018-04-12T15:09:25.015Z,17.45
2018-04-12T15:11:54.433Z,17.25
2018-04-12T15:14:23.236Z,17.01
2018-04-12T15:16:53.580Z,16.91
2018-04-12T15:19:24.147Z,17.33
2018-04-12T15:21:54.074Z,17.61
2018-04-12T15:24:22.812Z,16.93
2018-04-12T15:26:54.040Z,17.13
2018-04-12T15:29:23.511Z,16.88
2018-04-12T15:31:53.082Z,14.78
2018-04-12T15:34:23.791Z,14.66
2018-04-12T15:36:53.487Z,14.19
2018-04-12T15:39:26.510Z,13.99
2018-04-12T15:45:06.284Z,14.42
2018-04-12T15:47:36.774Z,14.55
2018-04-12T15:50:11.743Z,14.57
2018-04-12T15:52:49.845Z,15.05
2018-04-12T15:55:19.557Z,14.84
2018-04-12T15:57:49.821Z,15.11
2018-04-12T16:00:20.482Z,15.89
2018-04-12T16:02:50.561Z,16.56
2018-04-12T16:05:22.698Z,16.66
2018-04-12T16:07:54.382Z,16.48
2018-04-12T16:10:26.306Z,17.28
2018-04-12T16:12:59.380Z,18.82
2018-04-12T16:15:29.118Z,19.47
2018-04-12T16:17:57.716Z,19.63
2018-04-12T16:20:26.559Z,21.14
2018-04-12T16:26:03.822Z,23.06
2018-04-12T16:28:35.683Z,24.23
2018-04-12T16:31:06.633Z,23.76
2018-04-12T16:33:38.182Z,23.87
2018-04-12T16:36:10.663Z,22.88
2018-04-12T16:38:43.014Z,20.84
2018-04-12T16:41:16.616Z,20.21
2018-04-12T16:43:49.543Z,22.85
2018-04-12T16:46:27.156Z,23.50
2018-04-12T16:49:10.863Z,22.63
2018-04-12T16:51:48.263Z,21.38
2018-04-12T16:54:26.768Z,20.09
2018-04-12T16:56:56.143Z,21.87
2018-04-12T16:59:26.315Z,20.81
2018-04-12T17:01:57.114Z,22.54
2018-04-12T17:04:29.709Z,21.67
2018-04-12T17:07:05.919Z,22.13
2018-04-12T17:09:37.665Z,22.82
2018-04-12T17:12:10.297Z,21.76
2018-04-12T17:14:47.526Z,23.10
2018-04-12T17:17:19.696Z,22.60
2018-04-12T17:19:49.131Z,22.23
2018-04-12T17:22:18.309Z,22.20
2018-04-12T17:24:48.184Z,20.78
2018-04-12T17:27:18.918Z,24.10
2018-04-12T17:29:49.876Z,26.24
2018-04-12T17:32:20.507Z,26.53
2018-04-12T17:34:50.164Z,25.42
2018-04-12T17:37:19.196Z,23.28
2018-04-12T17:39:53.128Z,22.19
2018-04-12T17:42:27.184Z,24.83
2018-04-12T17:44:57.545Z,26.28
2018-04-12T17:47:27.193Z,24.63
2018-04-12T17:49:56.758Z,23.65
2018-04-12T17:52:29.853Z,24.44
2018-04-12T17:54:59.168Z,25.95
2018-04-12T17:57:28.330Z,24.11
2018-04-12T17:59:57.352Z,28.33
2018-04-12T18:02:26.545Z,28.52
2018-04-12T18:04:55.777Z,28.89
2018-04-12T18:07:25.202Z,28.67
2018-04-12T18:09:54.247Z,28.87
2018-04-12T18:12:23.879Z,28.47
2018-04-12T18:14:54.072Z,28.74
2018-04-12T18:17:23.023Z,29.49
2018-04-12T18:19:52.056Z,29.14
2018-04-12T18:22:21.467Z,29.28
2018-04-12T18:24:50.764Z,29.87
2018-04-12T18:27:19.755Z,30.00
2018-04-12T18:29:49.165Z,29.32
2018-04-12T18:32:18.663Z,29.75
2018-04-12T18:34:52.224Z,33.43
2018-04-12T18:37:21.602Z,31.25
2018-04-12T18:39:51.113Z,31.12
2018-04-12T18:42:20.186Z,32.31
2018-04-12T18:44:51.923Z,35.97
2018-04-12T18:47:24.868Z,35.36
2018-04-12T18:50:00.634Z,34.57
2018-04-12T18:52:31.182Z,34.53
2018-04-12T18:55:00.344Z,34.74
2018-04-12T18:57:29.260Z,35.00
2018-04-12T18:59:58.476Z,35.69
2018-04-12T19:02:27.626Z,35.77
2018-04-12T19:04:57.355Z,35.82
2018-04-12T19:07:30.251Z,33.26
2018-04-12T19:09:59.334Z,35.19
2018-04-12T19:12:28.323Z,34.99
2018-04-12T19:14:57.622Z,36.66
2018-04-12T19:17:27.233Z,37.01
2018-04-12T19:19:56.450Z,35.66
2018-04-12T19:22:25.883Z,35.30
2018-04-12T19:24:59.672Z,35.44
2018-04-12T19:27:29.096Z,39.95
2018-04-12T19:30:03.795Z,39.35
2018-04-12T19:32:32.917Z,42.50
2018-04-12T19:35:10.990Z,39.75
2018-04-12T19:37:41.713Z,39.51
2018-04-12T19:40:10.696Z,40.15
2018-04-12T19:42:39.719Z,42.82
2018-04-12T19:45:21.256Z,40.62
2018-04-12T19:47:50.220Z,40.30
2018-04-12T19:50:19.653Z,40.53
2018-04-12T19:52:49.706Z,40.97
2018-04-12T19:55:21.388Z,41.46
2018-04-12T19:57:51.403Z,43.24
2018-04-12T20:00:20.863Z,43.69
2018-04-12T20:02:49.942Z,43.89
2018-04-12T20:05:19.430Z,43.33
2018-04-12T20:07:51.499Z,44.00
2018-04-12T20:10:22.246Z,43.58
2018-04-12T20:12:52.229Z,43.52
2018-04-12T20:15:22.157Z,43.88
2018-04-12T20:17:58.894Z,43.94
2018-04-12T20:20:32.161Z,44.17
2018-04-12T20:23:05.353Z,44.87
2018-04-12T20:25:35.939Z,45.43
2018-04-12T20:28:09.119Z,46.69
2018-04-12T20:30:47.952Z,47.79
2018-04-12T20:33:20.857Z,48.62
2018-04-12T20:35:52.163Z,47.67
2018-04-12T20:38:22.235Z,48.43
2018-04-12T20:40:51.874Z,48.58
2018-04-12T20:43:21.675Z,49.32
2018-04-12T20:45:51.799Z,51.00
2018-04-12T20:48:22.313Z,52.38
2018-04-12T20:50:51.595Z,52.66
2018-04-12T20:53:21.122Z,54.33
2018-04-12T20:55:50.733Z,54.36
2018-04-12T20:58:20.611Z,54.96
2018-04-12T21:00:50.469Z,54.47
2018-04-12T21:03:20.256Z,54.88
2018-04-12T21:05:50.455Z,55.38
2018-04-12T21:08:21.465Z,56.21
2018-04-12T21:10:51.608Z,56.54
2018-04-12T21:13:21.094Z,57.29
2018-04-12T21:15:51.545Z,59.21
2018-04-12T21:18:21.482Z,60.08
2018-04-12T21:20:50.445Z,61.60
2018-04-12T21:23:20.196Z,60.93
2018-04-12T21:25:50.321Z,60.52
2018-04-12T21:28:20.191Z,60.16
2018-04-12T21:30:49.271Z,59.95
2018-04-12T21:33:18.397Z,59.97
2018-04-12T21:35:47.456Z,60.17
2018-04-12T21:38:17.086Z,60.26
2018-04-12T21:40:46.171Z,61.56
2018-04-12T21:43:15.294Z,62.05
2018-04-12T21:45:46.721Z,62.27
2018-04-12T21:48:15.933Z,62.85
2018-04-12T21:50:45.117Z,63.93
2018-04-12T21:53:14.770Z,64.56
2018-04-12T21:55:43.768Z,63.69
2018-04-12T21:58:12.975Z,63.76
2018-04-12T22:00:42.012Z,63.75
2018-04-12T22:03:11.518Z,64.04
2018-04-12T22:05:41.792Z,64.23
2018-04-12T22:08:10.883Z,65.10
2018-04-12T22:10:40.180Z,65.36
2018-04-12T22:13:10.751Z,65.62
2018-04-12T22:15:39.837Z,65.40
2018-04-12T22:18:08.846Z,65.39
2018-04-12T22:20:39.243Z,66.28
2018-04-12T22:23:08.677Z,66.16
2018-04-12T22:25:37.759Z,66.72
2018-04-12T22:28:08.499Z,67.03
2018-04-12T22:30:37.692Z,67.33
2018-04-12T22:33:06.864Z,67.45
2018-04-12T22:35:35.887Z,67.49
2018-04-12T22:38:05.036Z,68.22
2018-04-12T22:40:34.193Z,67.90
2018-04-12T22:43:03.579Z,68.83
2018-04-12T22:45:34.071Z,69.40
2018-04-12T22:48:03.236Z,69.65
2018-04-12T22:50:32.575Z,69.81
2018-04-12T22:53:01.916Z,69.92
2018-04-12T22:55:31.068Z,70.40
2018-04-12T22:58:00.128Z,70.24
2018-04-12T23:00:33.174Z,70.59
2018-04-12T23:03:02.256Z,70.70
2018-04-12T23:05:31.527Z,70.50
2018-04-12T23:08:00.690Z,70.80
2018-04-12T23:10:31.261Z,71.32
2018-04-12T23:13:00.656Z,71.11
2018-04-12T23:15:30.023Z,71.01
2018-04-12T23:17:59.317Z,71.07
2018-04-12T23:20:28.398Z,71.55
2018-04-12T23:22:57.429Z,71.60
2018-04-12T23:25:26.515Z,72.04
2018-04-12T23:27:56.404Z,72.18
2018-04-12T23:30:25.593Z,72.07
2018-04-12T23:32:55.366Z,72.34
2018-04-12T23:35:30.150Z,72.52
2018-04-12T23:37:59.217Z,72.74
2018-04-12T23:40:28.295Z,73.14
2018-04-12T23:42:57.441Z,73.02
2018-04-12T23:45:27.104Z,73.30
2018-04-12T23:47:56.132Z,73.41
2018-04-12T23:50:25.176Z,73.36
2018-04-12T23:52:54.536Z,73.61
2018-04-12T23:55:23.642Z,73.79
2018-04-12T23:57:53.887Z,73.56
